createdAt,value
2023-03-27T00:03:03.229Z,2.62
2023-03-27T00:08:09.384Z,2.52
2023-03-27T00:13:13.595Z,2.46
2023-03-27T00:18:18.037Z,2.39
2023-03-27T00:23:22.365Z,2.32
2023-03-27T00:28:27.067Z,2.27
2023-03-27T00:33:31.225Z,2.22
2023-03-27T00:38:34.243Z,2.20
2023-03-27T00:43:43.323Z,2.13
2023-03-27T00:48:51.313Z,2.10
2023-03-27T00:53:56.054Z,2.08
2023-03-27T00:59:02.251Z,2.04
2023-03-27T01:04:08.928Z,1.99
2023-03-27T01:09:20.584Z,1.98
2023-03-27T01:14:39.236Z,1.99
2023-03-27T01:20:14.217Z,1.98
2023-03-27T01:26:00.637Z,1.98
2023-03-27T01:31:17.897Z,1.94
2023-03-27T01:36:45.367Z,1.93
2023-03-27T01:41:55.712Z,1.92
2023-03-27T01:47:04.598Z,1.94
2023-03-27T01:52:15.587Z,1.97
2023-03-27T01:57:25.829Z,1.99
2023-03-27T02:02:34.206Z,1.99
2023-03-27T02:07:42.957Z,2.03
2023-03-27T02:12:54.036Z,1.98
2023-03-27T02:18:05.473Z,1.98
2023-03-27T02:23:09.674Z,1.90
2023-03-27T02:28:31.721Z,1.78
2023-03-27T02:33:44.921Z,1.72
2023-03-27T02:38:54.959Z,1.66
2023-03-27T02:44:05.723Z,1.62
2023-03-27T02:49:27.117Z,1.59
2023-03-27T02:54:34.446Z,1.56
2023-03-27T02:59:44.973Z,1.55
2023-03-27T03:04:57.061Z,1.51
2023-03-27T03:10:06.997Z,1.44
2023-03-27T03:15:12.805Z,1.42
2023-03-27T03:20:17.008Z,1.41
2023-03-27T03:25:19.897Z,1.43
2023-03-27T03:30:27.461Z,1.45
2023-03-27T03:35:51.153Z,1.44
2023-03-27T03:41:03.753Z,1.43
2023-03-27T03:46:08.922Z,1.45
2023-03-27T03:51:11.821Z,1.42
2023-03-27T03:56:15.142Z,1.38
2023-03-27T04:01:20.745Z,1.35
2023-03-27T04:06:27.600Z,1.36
2023-03-27T04:11:34.503Z,1.33
2023-03-27T04:17:01.256Z,1.35
2023-03-27T04:22:05.064Z,1.37
2023-03-27T04:27:14.426Z,1.31
2023-03-27T04:32:36.812Z,1.31
2023-03-27T04:37:58.158Z,1.32
2023-03-27T04:43:11.962Z,1.31
2023-03-27T04:48:16.886Z,1.28
2023-03-27T04:53:31.128Z,1.16
2023-03-27T04:58:37.491Z,1.11
2023-03-27T05:03:49.267Z,0.99
2023-03-27T05:09:16.526Z,0.90
2023-03-27T05:14:20.906Z,0.84
2023-03-27T05:19:26.703Z,0.78
2023-03-27T05:24:35.918Z,0.75
2023-03-27T05:29:47.776Z,0.72
2023-03-27T05:34:55.394Z,0.68
2023-03-27T05:40:00.833Z,0.70
2023-03-27T05:45:03.988Z,0.73
2023-03-27T05:50:10.388Z,0.76
2023-03-27T05:55:15.817Z,0.85
2023-03-27T06:00:25.070Z,0.95
2023-03-27T06:05:32.594Z,1.10
2023-03-27T06:10:42.388Z,1.19
2023-03-27T06:15:57.873Z,1.36
2023-03-27T06:21:26.498Z,1.52
2023-03-27T06:26:34.942Z,1.73
2023-03-27T06:31:39.418Z,1.92
2023-03-27T06:36:46.808Z,2.21
2023-03-27T06:41:51.128Z,2.34
2023-03-27T06:46:54.176Z,2.38
2023-03-27T06:52:09.170Z,2.57
2023-03-27T06:57:12.510Z,2.52
2023-03-27T07:02:35.150Z,2.57
2023-03-27T07:13:25.669Z,2.90
2023-03-27T07:18:30.990Z,3.15
2023-03-27T07:23:36.734Z,3.16
2023-03-27T07:28:46.240Z,3.24
2023-03-27T07:33:49.979Z,3.47
2023-03-27T07:38:57.109Z,3.51
2023-03-27T07:44:08.149Z,3.99
2023-03-27T07:49:39.315Z,4.00
2023-03-27T07:54:48.121Z,4.38
2023-03-27T07:59:52.591Z,4.33
2023-03-27T08:05:19.471Z,4.91
2023-03-27T08:10:40.441Z,4.49
2023-03-27T08:15:45.438Z,4.61
2023-03-27T08:21:03.228Z,4.65
2023-03-27T08:26:09.073Z,4.79
2023-03-27T08:31:20.335Z,4.48
2023-03-27T08:36:24.257Z,4.62
2023-03-27T08:41:33.747Z,5.17
2023-03-27T08:46:50.500Z,5.57
2023-03-27T08:52:02.638Z,5.43
2023-03-27T08:57:19.567Z,5.83
2023-03-27T09:02:37.587Z,5.52
2023-03-27T09:07:48.113Z,5.45
2023-03-27T09:13:11.836Z,5.35
2023-03-27T09:18:20.985Z,5.74
2023-03-27T09:23:36.137Z,5.57
2023-03-27T09:29:20.817Z,5.42
2023-03-27T09:34:33.558Z,5.89
2023-03-27T09:39:43.205Z,5.94
2023-03-27T09:45:06.358Z,6.39
2023-03-27T09:50:29.472Z,6.56
2023-03-27T09:55:57.469Z,6.07
2023-03-27T10:01:17.096Z,5.85
2023-03-27T10:06:30.072Z,5.84
2023-03-27T10:11:42.166Z,5.72
2023-03-27T10:16:54.474Z,5.46
2023-03-27T10:22:03.905Z,5.06
2023-03-27T10:27:12.041Z,4.21
2023-03-27T10:32:48.702Z,4.39
2023-03-27T10:38:15.903Z,4.87
2023-03-27T10:43:33.096Z,4.96
2023-03-27T10:48:50.131Z,5.22
2023-03-27T10:54:03.007Z,6.07
2023-03-27T10:59:34.544Z,6.88
2023-03-27T11:04:55.593Z,6.83
2023-03-27T11:10:14.958Z,6.85
2023-03-27T11:15:25.080Z,7.30
2023-03-27T11:20:34.714Z,7.90
2023-03-27T11:26:00.002Z,7.87
2023-03-27T11:31:12.206Z,7.14
2023-03-27T11:36:43.461Z,6.96
2023-03-27T11:41:55.276Z,7.43
2023-03-27T11:47:15.625Z,8.39
2023-03-27T11:52:34.565Z,6.96
2023-03-27T11:57:52.901Z,7.34
2023-03-27T12:03:44.743Z,8.82
2023-03-27T12:09:22.169Z,10.29
2023-03-27T12:15:07.615Z,10.84
2023-03-27T12:20:28.796Z,11.60
2023-03-27T12:26:13.837Z,12.70
2023-03-27T12:31:52.671Z,10.59
2023-03-27T12:36:56.748Z,7.45
2023-03-27T12:42:14.251Z,7.61
2023-03-27T12:47:24.975Z,7.99
2023-03-27T12:52:46.096Z,10.29
2023-03-27T12:57:56.065Z,12.28
2023-03-27T13:04:05.074Z,13.53
2023-03-27T13:09:22.051Z,13.13
2023-03-27T13:15:08.566Z,13.79
2023-03-27T13:20:28.634Z,13.95
2023-03-27T13:25:45.697Z,12.52
2023-03-27T13:30:57.379Z,11.01
2023-03-27T13:36:24.721Z,9.60
2023-03-27T13:42:14.719Z,8.07
2023-03-27T13:47:52.501Z,7.83
2023-03-27T13:53:18.728Z,8.27
2023-03-27T13:58:54.759Z,8.53
2023-03-27T14:04:29.456Z,6.03
2023-03-27T14:09:58.320Z,5.23
2023-03-27T14:15:38.721Z,5.38
2023-03-27T14:21:03.445Z,5.89
2023-03-27T14:26:19.241Z,5.95
2023-03-27T14:31:26.942Z,5.95
2023-03-27T14:36:47.657Z,6.39
2023-03-27T14:42:02.409Z,6.49
2023-03-27T14:47:14.572Z,6.50
2023-03-27T14:52:26.767Z,6.58
2023-03-27T14:58:11.096Z,6.95
2023-03-27T15:03:19.998Z,7.15
2023-03-27T15:08:33.548Z,5.73
2023-03-27T15:13:50.738Z,5.33
2023-03-27T15:19:09.751Z,5.69
2023-03-27T15:24:19.729Z,5.42
2023-03-27T15:29:32.444Z,5.50
2023-03-27T15:34:46.155Z,5.95
2023-03-27T15:40:34.955Z,6.10
2023-03-27T15:45:41.014Z,6.08
2023-03-27T15:50:55.877Z,6.21
2023-03-27T15:56:01.533Z,6.32
2023-03-27T16:01:18.388Z,6.29
2023-03-27T16:06:30.799Z,6.21
2023-03-27T16:11:45.614Z,5.95
2023-03-27T16:16:49.696Z,5.17
2023-03-27T16:21:57.844Z,3.88
2023-03-27T16:27:01.981Z,3.80
2023-03-27T16:32:05.864Z,3.76
2023-03-27T16:37:09.081Z,3.64
2023-03-27T16:42:16.114Z,3.60
2023-03-27T16:47:20.382Z,3.66
2023-03-27T16:52:23.498Z,3.77
2023-03-27T16:57:29.751Z,3.99
2023-03-27T17:02:34.925Z,4.03
2023-03-27T17:07:38.089Z,4.03
2023-03-27T17:12:42.399Z,3.87
2023-03-27T17:17:45.925Z,3.78
2023-03-27T17:22:53.079Z,3.58
2023-03-27T17:27:57.040Z,3.44
2023-03-27T17:33:00.323Z,3.30
2023-03-27T17:38:03.356Z,3.20
2023-03-27T17:43:07.900Z,3.12
2023-03-27T17:48:12.352Z,3.02
2023-03-27T17:53:16.001Z,2.99
2023-03-27T17:58:22.122Z,3.00
2023-03-27T18:03:26.964Z,2.95
2023-03-27T18:08:30.010Z,2.90
2023-03-27T18:13:34.249Z,2.82
2023-03-27T18:18:40.891Z,2.75
2023-03-27T18:23:46.265Z,2.66
2023-03-27T18:28:53.368Z,2.61
2023-03-27T18:33:59.260Z,2.56
2023-03-27T18:39:03.022Z,2.48
2023-03-27T18:44:08.613Z,2.42
2023-03-27T18:49:23.512Z,2.35
2023-03-27T18:54:29.264Z,2.32
2023-03-27T18:59:36.267Z,2.26
2023-03-27T19:04:39.132Z,2.26
2023-03-27T19:09:42.933Z,2.33
2023-03-27T19:14:48.063Z,2.29
2023-03-27T19:20:13.740Z,2.21
2023-03-27T19:25:29.038Z,2.20
2023-03-27T19:30:34.246Z,2.11
2023-03-27T19:35:41.818Z,2.08
2023-03-27T19:40:46.202Z,2.06
2023-03-27T19:46:08.277Z,2.06
2023-03-27T19:51:17.699Z,2.08
2023-03-27T19:56:20.793Z,2.13
2023-03-27T20:01:28.270Z,2.17
2023-03-27T20:06:34.958Z,2.20
2023-03-27T20:11:42.443Z,2.21
2023-03-27T20:16:46.898Z,2.21
2023-03-27T20:21:49.789Z,2.23
2023-03-27T20:26:54.791Z,2.20
2023-03-27T20:32:08.285Z,2.11
2023-03-27T20:37:12.915Z,2.00
2023-03-27T20:42:26.569Z,1.89
2023-03-27T20:47:39.036Z,1.81
2023-03-27T20:52:45.021Z,1.75
2023-03-27T20:57:49.033Z,1.68
2023-03-27T21:02:54.353Z,1.61
2023-03-27T21:08:00.036Z,1.53
2023-03-27T21:13:04.592Z,1.53
2023-03-27T21:18:08.993Z,1.49
2023-03-27T21:23:14.162Z,1.49
2023-03-27T21:28:19.450Z,1.48
2023-03-27T21:33:25.706Z,1.48
2023-03-27T21:38:28.961Z,1.50
2023-03-27T21:43:31.773Z,1.54
2023-03-27T21:48:40.428Z,1.60
2023-03-27T21:53:43.862Z,1.61
2023-03-27T21:58:48.661Z,1.57
2023-03-27T22:03:52.933Z,1.51
2023-03-27T22:08:56.159Z,1.44
2023-03-27T22:13:59.916Z,1.37
2023-03-27T22:19:06.443Z,1.29
2023-03-27T22:24:10.199Z,1.20
2023-03-27T22:29:21.022Z,1.17
2023-03-27T22:34:27.842Z,1.11
2023-03-27T22:39:31.018Z,1.04
2023-03-27T22:44:35.030Z,0.99
2023-03-27T22:49:40.207Z,0.92
2023-03-27T22:54:43.261Z,0.84
2023-03-27T22:59:46.309Z,0.78
2023-03-27T23:04:51.738Z,0.73
2023-03-27T23:09:55.960Z,0.73
2023-03-27T23:14:58.792Z,0.71
2023-03-27T23:20:03.046Z,0.65
2023-03-27T23:25:07.072Z,0.63
2023-03-27T23:30:12.028Z,0.61
2023-03-27T23:35:26.643Z,0.62
2023-03-27T23:40:38.817Z,0.62
2023-03-27T23:45:43.896Z,0.58
2023-03-27T23:50:48.359Z,0.54
2023-03-27T23:55:51.200Z,0.49
